Time;durP1;ratioP1;P1;durP2;ratioP2;P2;SDS_P1;SDS_P2;PMS_P1;PMS_P2;Temp;Humidity;BMP_temperature;BMP_pressure;BME280_temperature;BME280_humidity;BME280_pressure;Samples;Min_cycle;Max_cycle;Signal;HPM_P1;HPM_P2
2020/12/13 00:01:57;;;;;;;43.10;23.08;;;9.30;99.90;;;;;;4159296;28;20034;-70
2020/12/13 00:03:58;;;;;;;41.08;23.20;;;9.40;99.90;;;;;;4159585;28;20044;-70
2020/12/13 00:05:58;;;;;;;38.47;21.50;;;9.30;99.90;;;;;;4164802;28;20487;-70
2020/12/13 00:07:59;;;;;;;39.08;21.88;;;9.40;99.90;;;;;;4160988;28;20021;-70
2020/12/13 00:09:59;;;;;;;42.38;23.13;;;9.40;99.90;;;;;;4161852;28;20030;-70
2020/12/13 00:12:07;;;;;;;43.33;24.00;;;9.40;99.90;;;;;;4161266;28;20053;-70
2020/12/13 00:14:07;;;;;;;44.88;24.27;;;9.40;99.90;;;;;;4157447;28;20072;-70
2020/12/13 00:16:08;;;;;;;42.53;23.27;;;9.30;99.90;;;;;;4159831;28;20034;-70
2020/12/13 00:18:08;;;;;;;38.78;22.38;;;9.40;99.90;;;;;;4160408;28;20033;-70
2020/12/13 00:20:09;;;;;;;41.80;22.48;;;9.40;99.90;;;;;;4159661;28;20025;-70
2020/12/13 00:22:10;;;;;;;41.83;23.17;;;9.40;99.90;;;;;;4160845;28;20049;-70
2020/12/13 00:24:10;;;;;;;40.17;21.73;;;9.40;99.90;;;;;;4161334;28;20033;-70
2020/12/13 00:26:11;;;;;;;44.40;22.85;;;9.40;99.90;;;;;;4161449;28;20026;-70
2020/12/13 00:28:12;;;;;;;38.13;21.52;;;9.40;99.90;;;;;;4161486;28;20168;-70
2020/12/13 00:30:13;;;;;;;43.40;23.40;;;9.40;99.90;;;;;;4161039;28;20604;-70
2020/12/13 00:32:14;;;;;;;40.65;22.25;;;9.40;99.90;;;;;;4158969;28;20099;-70
2020/12/13 00:34:15;;;;;;;42.33;23.48;;;9.40;99.90;;;;;;4161387;28;20056;-70
2020/12/13 00:36:18;;;;;;;42.17;23.27;;;9.40;99.90;;;;;;4160062;28;20519;-70
2020/12/13 00:38:20;;;;;;;39.00;22.20;;;9.40;99.90;;;;;;4160186;28;20159;-70
2020/12/13 00:40:21;;;;;;;38.25;22.75;;;9.40;99.90;;;;;;4160771;28;20026;-70
2020/12/13 00:42:21;;;;;;;44.40;24.75;;;9.40;99.90;;;;;;4163335;28;20029;-70
2020/12/13 00:44:22;;;;;;;42.83;24.05;;;9.40;99.90;;;;;;4166841;28;20258;-70
2020/12/13 00:46:23;;;;;;;46.63;24.27;;;9.40;99.90;;;;;;4165252;28;20060;-70
2020/12/13 00:48:23;;;;;;;49.35;24.05;;;9.30;99.90;;;;;;4163234;28;20038;-70
2020/12/13 00:50:24;;;;;;;43.35;24.60;;;9.30;99.90;;;;;;4163360;28;20045;-71
2020/12/13 00:52:25;;;;;;;40.17;22.27;;;9.30;99.90;;;;;;4166549;28;20370;-70
2020/12/13 00:54:26;;;;;;;40.97;24.52;;;9.30;99.90;;;;;;4164655;28;20029;-71
2020/12/13 00:56:27;;;;;;;45.13;25.13;;;9.30;99.90;;;;;;4167556;28;20049;-71
2020/12/13 00:58:27;;;;;;;40.88;22.25;;;9.30;99.90;;;;;;4164389;28;20410;-71
2020/12/13 01:00:28;;;;;;;45.47;25.17;;;9.30;99.90;;;;;;4163631;28;20037;-71
2020/12/13 01:02:28;;;;;;;47.85;26.05;;;9.30;99.90;;;;;;4165708;28;20397;-71
2020/12/13 01:04:29;;;;;;;42.95;24.48;;;9.30;99.90;;;;;;4162102;28;20457;-70
2020/12/13 01:06:30;;;;;;;49.28;27.63;;;9.40;99.90;;;;;;4168793;28;20038;-71
2020/12/13 01:08:30;;;;;;;42.60;24.42;;;9.30;99.90;;;;;;4167120;28;20034;-70
2020/12/13 01:10:31;;;;;;;42.10;24.50;;;9.30;99.90;;;;;;4147445;28;20041;-71
2020/12/13 01:12:32;;;;;;;51.33;27.77;;;9.30;99.90;;;;;;4169683;28;20029;-71
2020/12/13 01:14:32;;;;;;;48.13;27.63;;;9.30;99.90;;;;;;4164818;28;20492;-71
2020/12/13 01:16:33;;;;;;;46.10;26.17;;;9.30;99.90;;;;;;4166536;28;20034;-70
2020/12/13 01:18:34;;;;;;;47.88;27.08;;;9.30;99.90;;;;;;4166052;28;20045;-71
2020/12/13 01:20:35;;;;;;;48.08;26.88;;;9.30;99.90;;;;;;4161137;28;20064;-71
2020/12/13 01:22:39;;;;;;;49.00;28.15;;;9.40;99.90;;;;;;4167540;28;20116;-71
2020/12/13 01:24:40;;;;;;;47.30;27.00;;;9.40;99.90;;;;;;4162533;28;20029;-70
2020/12/13 01:26:41;;;;;;;47.63;27.50;;;9.40;99.90;;;;;;4159729;28;20037;-71
2020/12/13 01:28:42;;;;;;;42.58;24.80;;;9.40;99.90;;;;;;4158149;28;20029;-70
2020/12/13 01:30:43;;;;;;;39.33;23.60;;;9.40;99.90;;;;;;4161913;28;20037;-70
2020/12/13 01:32:43;;;;;;;52.08;26.92;;;9.40;99.90;;;;;;4153169;28;20524;-70
2020/12/13 01:34:44;;;;;;;47.92;26.75;;;9.40;99.90;;;;;;4154644;28;20230;-70
2020/12/13 01:36:44;;;;;;;45.53;25.20;;;9.40;99.90;;;;;;4153251;28;20464;-71
2020/12/13 01:38:45;;;;;;;39.72;23.60;;;9.40;99.90;;;;;;4153694;28;20088;-71
2020/12/13 01:40:46;;;;;;;43.72;24.15;;;9.40;99.90;;;;;;4154031;28;20565;-70
2020/12/13 01:42:47;;;;;;;43.92;25.48;;;9.40;99.90;;;;;;4153368;28;20039;-71
2020/12/13 01:44:48;;;;;;;49.22;27.17;;;9.40;99.90;;;;;;4151570;28;20048;-71
2020/12/13 01:46:48;;;;;;;44.28;25.98;;;9.40;99.90;;;;;;4154570;28;20497;-70
2020/12/13 01:48:55;;;;;;;49.45;28.13;;;9.40;99.90;;;;;;4153783;28;20025;-70
2020/12/13 01:53:15;;;;;;;47.83;27.33;;;9.40;99.90;;;;;;4149923;28;20033;-71
2020/12/13 01:55:19;;;;;;;45.90;26.50;;;9.40;99.90;;;;;;4152234;28;20072;-71
2020/12/13 01:57:22;;;;;;;44.10;25.30;;;9.40;99.90;;;;;;4153201;28;20473;-70
2020/12/13 01:59:25;;;;;;;45.97;26.70;;;9.40;99.90;;;;;;4154636;28;20026;-71
2020/12/13 02:01:28;;;;;;;44.15;24.98;;;9.40;99.90;;;;;;4153035;28;20394;-71
2020/12/13 02:03:32;;;;;;;;;;;9.40;99.90;;;;;;4150630;28;20049;-70
2020/12/13 02:05:34;;;;;;;44.58;25.15;;;9.40;99.90;;;;;;4155548;28;19955;-70
2020/12/13 02:07:37;;;;;;;46.65;25.23;;;9.40;99.90;;;;;;4154885;28;20087;-71
2020/12/13 02:09:38;;;;;;;44.80;25.98;;;9.40;99.90;;;;;;4154941;28;20034;-70
2020/12/13 02:11:38;;;;;;;45.40;26.95;;;9.40;99.90;;;;;;4152734;28;20650;-71
2020/12/13 02:13:39;;;;;;;43.70;25.15;;;9.40;99.90;;;;;;4153745;28;20154;-71
2020/12/13 02:15:40;;;;;;;48.85;27.17;;;9.40;99.90;;;;;;4156384;28;20314;-71
2020/12/13 02:17:41;;;;;;;43.78;24.65;;;9.40;99.90;;;;;;4149928;28;20034;-70
2020/12/13 02:19:43;;;;;;;46.42;25.88;;;9.40;99.90;;;;;;4155808;28;20037;-70
2020/12/13 02:21:45;;;;;;;44.58;24.38;;;9.40;99.90;;;;;;4151249;28;20155;-70
2020/12/13 02:23:45;;;;;;;42.50;25.08;;;9.40;99.90;;;;;;4151552;28;20064;-70
2020/12/13 02:25:46;;;;;;;55.45;29.63;;;9.40;99.90;;;;;;4158887;28;20957;-70
2020/12/13 02:27:46;;;;;;;45.28;26.58;;;9.40;99.90;;;;;;4159328;28;20038;-71
2020/12/13 02:29:47;;;;;;;56.60;29.95;;;9.40;99.90;;;;;;4158437;28;20460;-70
2020/12/13 02:31:48;;;;;;;48.17;27.05;;;9.40;99.90;;;;;;4157412;28;20025;-70
2020/12/13 02:33:49;;;;;;;48.78;28.60;;;9.40;99.90;;;;;;4157080;28;20071;-71
2020/12/13 02:35:49;;;;;;;55.95;30.75;;;9.40;99.90;;;;;;4158746;28;20500;-71
2020/12/13 02:37:50;;;;;;;55.95;31.13;;;9.30;99.90;;;;;;4159475;28;20512;-71
2020/12/13 02:39:51;;;;;;;54.33;32.03;;;9.30;99.90;;;;;;4157403;28;20029;-71
2020/12/13 02:42:01;;;;;;;50.40;28.65;;;9.30;99.90;;;;;;4158738;28;20381;-71
2020/12/13 02:44:02;;;;;;;53.22;30.13;;;9.30;99.90;;;;;;4156693;28;20575;-71
2020/12/13 02:46:03;;;;;;;54.45;30.25;;;9.30;99.90;;;;;;4157737;28;20037;-71
2020/12/13 02:48:03;;;;;;;49.00;27.63;;;9.30;99.90;;;;;;4150647;28;20033;-71
2020/12/13 02:50:05;;;;;;;47.75;26.98;;;9.30;99.90;;;;;;4159036;28;20056;-71
2020/12/13 02:52:05;;;;;;;47.97;26.92;;;9.30;99.90;;;;;;4157732;28;20060;-71
2020/12/13 02:54:06;;;;;;;50.97;28.90;;;9.30;99.90;;;;;;4152833;28;20030;-71
2020/12/13 02:56:07;;;;;;;48.92;26.63;;;9.30;99.90;;;;;;4158591;28;20037;-71
2020/12/13 02:58:07;;;;;;;47.50;26.67;;;9.30;99.90;;;;;;4157812;28;20375;-71
2020/12/13 03:00:08;;;;;;;46.50;26.65;;;9.30;99.90;;;;;;4158417;28;20489;-71
2020/12/13 03:02:08;;;;;;;48.92;28.95;;;9.30;99.90;;;;;;4158406;28;20449;-71
2020/12/13 03:04:09;;;;;;;46.50;27.20;;;9.40;99.90;;;;;;4159025;28;20036;-71
2020/12/13 03:06:09;;;;;;;46.20;25.95;;;9.40;99.90;;;;;;4164193;28;20025;-71
2020/12/13 03:08:10;;;;;;;46.88;26.13;;;9.40;99.90;;;;;;4158770;28;20034;-71
2020/12/13 03:10:11;;;;;;;44.42;26.33;;;9.40;99.90;;;;;;4156661;28;20029;-70
2020/12/13 03:12:11;;;;;;;48.00;28.15;;;9.40;99.90;;;;;;4157894;28;20117;-71
2020/12/13 03:14:12;;;;;;;45.45;26.75;;;9.40;99.90;;;;;;4157016;28;20034;-71
2020/12/13 03:16:12;;;;;;;45.50;26.92;;;9.40;99.90;;;;;;4157597;28;20612;-71
2020/12/13 03:18:13;;;;;;;53.33;30.60;;;9.40;99.90;;;;;;4158717;28;20064;-71
2020/12/13 03:20:13;;;;;;;46.20;29.00;;;9.40;99.90;;;;;;4158707;28;20025;-71
2020/12/13 03:22:14;;;;;;;49.40;29.00;;;9.30;99.90;;;;;;4154795;28;20064;-71
2020/12/13 03:24:15;;;;;;;47.45;28.77;;;9.30;99.90;;;;;;4158219;28;20080;-71
2020/12/13 03:26:16;;;;;;;44.90;26.20;;;9.30;99.90;;;;;;4158818;28;20030;-71
2020/12/13 03:28:17;;;;;;;47.97;27.08;;;9.40;99.90;;;;;;4155006;28;26020;-71
2020/12/13 03:30:17;;;;;;;50.72;27.63;;;9.40;99.90;;;;;;4156990;28;20033;-71
2020/12/13 03:32:18;;;;;;;41.42;25.83;;;9.40;99.90;;;;;;4158131;28;20033;-71
2020/12/13 03:34:19;;;;;;;52.83;28.73;;;9.40;99.90;;;;;;4157999;28;20109;-71
2020/12/13 03:36:19;;;;;;;42.90;27.38;;;9.40;99.90;;;;;;4160256;28;20029;-71
2020/12/13 03:38:20;;;;;;;38.67;24.85;;;9.30;99.90;;;;;;4160513;28;20489;-71
2020/12/13 03:40:20;;;;;;;44.58;26.73;;;9.40;99.90;;;;;;4156357;28;20709;-71
2020/12/13 03:42:21;;;;;;;46.72;27.90;;;9.40;99.90;;;;;;4161896;28;20406;-71
2020/12/13 03:44:22;;;;;;;41.30;25.40;;;9.40;99.90;;;;;;4151451;28;20565;-71
2020/12/13 03:46:22;;;;;;;42.65;25.85;;;9.40;99.90;;;;;;4161132;28;20417;-71
2020/12/13 03:48:23;;;;;;;37.72;24.52;;;9.40;99.90;;;;;;4161897;28;20025;-71
2020/12/13 03:50:23;;;;;;;42.28;26.27;;;9.40;99.90;;;;;;4160558;28;20079;-70
2020/12/13 03:52:24;;;;;;;44.85;27.40;;;9.40;99.90;;;;;;4161711;28;20053;-71
2020/12/13 03:54:24;;;;;;;41.60;26.48;;;9.40;99.90;;;;;;4161778;28;20037;-71
2020/12/13 03:56:25;;;;;;;43.17;27.60;;;9.40;99.90;;;;;;4161154;28;20537;-71
2020/12/13 03:58:25;;;;;;;44.13;27.45;;;9.40;99.90;;;;;;4161196;28;20044;-71
2020/12/13 04:00:29;;;;;;;41.92;26.45;;;9.40;99.90;;;;;;4160179;28;20501;-70
2020/12/13 04:02:30;;;;;;;40.97;25.00;;;9.40;99.90;;;;;;4160698;28;20041;-71
2020/12/13 04:04:31;;;;;;;38.45;25.40;;;9.40;99.90;;;;;;4161644;28;20073;-71
2020/12/13 04:06:32;;;;;;;42.33;26.80;;;9.40;99.90;;;;;;4166234;28;20478;-71
2020/12/13 04:08:32;;;;;;;50.03;30.10;;;9.50;99.90;;;;;;4160039;28;20038;-70
2020/12/13 04:10:33;;;;;;;42.60;27.55;;;9.50;99.90;;;;;;4152843;28;20128;-71
2020/12/13 04:12:34;;;;;;;46.10;28.77;;;9.50;99.90;;;;;;4161239;28;20500;-71
2020/12/13 04:14:35;;;;;;;42.97;26.90;;;9.40;99.90;;;;;;4159174;28;20033;-71
2020/12/13 04:16:36;;;;;;;40.53;26.40;;;9.40;99.90;;;;;;4164507;28;20037;-71
2020/12/13 04:18:36;;;;;;;48.53;30.35;;;9.40;99.90;;;;;;4165689;28;20036;-71
2020/12/13 04:20:37;;;;;;;40.45;25.77;;;9.40;99.90;;;;;;4166270;28;20030;-71
2020/12/13 04:22:38;;;;;;;40.00;25.38;;;9.40;99.90;;;;;;4161579;28;20045;-71
2020/12/13 04:24:38;;;;;;;39.75;25.40;;;9.40;99.90;;;;;;4160076;28;20068;-71
2020/12/13 04:26:39;;;;;;;47.30;27.95;;;9.40;99.90;;;;;;4161344;28;20080;-71
2020/12/13 04:28:40;;;;;;;39.97;25.73;;;9.40;99.90;;;;;;4161468;28;20021;-71
2020/12/13 04:30:40;;;;;;;39.17;24.13;;;9.40;99.90;;;;;;4159147;28;20105;-71
2020/12/13 04:32:41;;;;;;;43.08;26.42;;;9.40;99.90;;;;;;4160932;28;20481;-71
2020/12/13 04:34:42;;;;;;;47.75;27.23;;;9.40;99.90;;;;;;4156590;28;20040;-71
2020/12/13 04:36:43;;;;;;;38.35;25.13;;;9.40;99.90;;;;;;4160638;28;20046;-71
2020/12/13 04:38:43;;;;;;;40.70;25.10;;;9.50;99.90;;;;;;4160459;28;20025;-71
2020/12/13 04:40:44;;;;;;;41.58;26.15;;;9.50;99.90;;;;;;4160916;28;20053;-71
2020/12/13 04:42:45;;;;;;;40.17;25.60;;;9.40;99.90;;;;;;4159249;28;20476;-70
2020/12/13 04:44:46;;;;;;;38.83;24.63;;;9.50;99.90;;;;;;4158719;28;20042;-71
2020/12/13 04:46:51;;;;;;;40.93;26.07;;;9.40;99.90;;;;;;4160305;28;20040;-71
2020/12/13 04:48:52;;;;;;;41.60;26.48;;;9.50;99.90;;;;;;4160565;28;20120;-71
2020/12/13 04:50:53;;;;;;;44.60;26.92;;;9.40;99.90;;;;;;4160277;28;20021;-71
2020/12/13 04:52:56;;;;;;;47.28;28.52;;;9.40;99.90;;;;;;4157935;28;20029;-71
2020/12/13 04:54:57;;;;;;;40.10;25.60;;;9.40;99.90;;;;;;4161058;28;20037;-71
2020/12/13 04:56:59;;;;;;;44.22;26.50;;;9.40;99.90;;;;;;4160298;28;20441;-71
2020/12/13 04:59:04;;;;;;;43.70;27.60;;;9.40;99.90;;;;;;4160596;28;20400;-71
2020/12/13 05:01:05;;;;;;;39.20;24.73;;;9.40;99.90;;;;;;4158797;28;20440;-71
2020/12/13 05:03:06;;;;;;;41.90;26.55;;;9.40;99.90;;;;;;4158010;28;20082;-71
2020/12/13 05:05:09;;;;;;;39.83;25.10;;;9.40;99.90;;;;;;4159969;28;20033;-71
2020/12/13 05:07:11;;;;;;;39.80;25.42;;;9.40;99.90;;;;;;4164025;28;20116;-71
2020/12/13 05:09:13;;;;;;;41.38;26.73;;;9.40;99.90;;;;;;4159470;28;20041;-71
2020/12/13 05:11:15;;;;;;;45.88;27.73;;;9.40;99.90;;;;;;4160633;28;20061;-71
2020/12/13 05:13:15;;;;;;;39.60;25.42;;;9.40;99.90;;;;;;4158903;28;20045;-71
2020/12/13 05:15:17;;;;;;;39.83;25.73;;;9.40;99.90;;;;;;4160451;28;20034;-71
2020/12/13 05:17:17;;;;;;;41.75;26.42;;;9.40;99.90;;;;;;4160050;28;20112;-71
2020/12/13 05:19:22;;;;;;;42.38;26.10;;;9.40;99.90;;;;;;4160659;28;20053;-71
2020/12/13 05:21:26;;;;;;;36.97;23.55;;;9.40;99.90;;;;;;4160085;28;20044;-71
2020/12/13 05:23:29;;;;;;;34.75;22.88;;;9.40;99.90;;;;;;4159522;28;20128;-71
2020/12/13 05:25:37;;;;;;;;;;;9.40;99.90;;;;;;4160383;28;20127;-71
2020/12/13 05:27:41;;;;;;;35.65;22.90;;;9.40;99.90;;;;;;4160275;28;19908;-71
2020/12/13 05:29:45;;;;;;;37.40;24.23;;;9.40;99.90;;;;;;4142672;28;20050;-71
2020/12/13 05:31:45;;;;;;;37.88;25.15;;;9.40;99.90;;;;;;4154667;28;20056;-71
2020/12/13 05:33:51;;;;;;;36.03;24.13;;;9.40;99.90;;;;;;4159533;28;20025;-71
2020/12/13 05:36:06;;;;;;;33.92;21.88;;;9.40;99.90;;;;;;4160503;28;20133;-71
2020/12/13 05:38:11;;;;;;;35.03;23.35;;;9.40;99.90;;;;;;4141298;28;20089;-71
2020/12/13 05:40:15;;;;;;;37.95;23.25;;;9.40;99.90;;;;;;4159666;28;20033;-71
2020/12/13 05:42:38;;;;;;;36.75;23.88;;;9.40;99.90;;;;;;4159519;28;20034;-71
2020/12/13 05:45:06;;;;;;;38.78;24.98;;;9.40;99.90;;;;;;4151126;28;20041;-71
2020/12/13 05:49:56;;;;;;;37.85;23.48;;;9.40;99.90;;;;;;4160139;28;20163;-71
2020/12/13 05:51:58;;;;;;;36.65;23.08;;;9.40;99.90;;;;;;4159522;28;20036;-71
2020/12/13 05:53:59;;;;;;;37.08;23.52;;;9.40;99.90;;;;;;4156158;28;20029;-71
2020/12/13 05:56:00;;;;;;;38.10;24.35;;;9.40;99.90;;;;;;4159693;28;20552;-70
2020/12/13 05:58:01;;;;;;;34.97;23.20;;;9.40;99.90;;;;;;4160102;28;20041;-71
2020/12/13 06:00:03;;;;;;;32.60;21.50;;;9.40;99.90;;;;;;4158269;28;20029;-71
2020/12/13 06:02:09;;;;;;;33.42;22.05;;;9.40;99.90;;;;;;4159582;28;20033;-71
2020/12/13 06:04:16;;;;;;;35.00;22.88;;;9.40;99.90;;;;;;4156150;28;20124;-71
2020/12/13 06:06:21;;;;;;;31.48;20.92;;;9.40;99.90;;;;;;4164850;28;20040;-71
2020/12/13 06:08:26;;;;;;;34.28;21.10;;;9.40;99.90;;;;;;4159845;28;20026;-71
2020/12/13 06:10:35;;;;;;;30.30;19.65;;;9.50;99.90;;;;;;4159447;28;20033;-71
2020/12/13 06:12:41;;;;;;;39.78;23.80;;;9.50;99.90;;;;;;4155180;28;20472;-71
2020/12/13 06:14:43;;;;;;;37.15;22.95;;;9.50;99.90;;;;;;4159084;28;20032;-71
2020/12/13 06:16:44;;;;;;;37.20;24.17;;;9.40;99.90;;;;;;4141336;28;20273;-71
2020/12/13 06:18:45;;;;;;;36.80;24.50;;;9.40;99.90;;;;;;4158028;28;20045;-71
2020/12/13 06:20:48;;;;;;;36.63;24.73;;;9.40;99.90;;;;;;4159274;28;20048;-71
2020/12/13 06:22:53;;;;;;;32.47;22.13;;;9.40;99.90;;;;;;4147781;28;20056;-71
2020/12/13 06:24:54;;;;;;;34.22;23.75;;;9.40;99.90;;;;;;4169646;28;20037;-71
2020/12/13 06:26:55;;;;;;;31.80;22.17;;;9.40;99.90;;;;;;4163167;28;20029;-71
2020/12/13 06:28:56;;;;;;;32.65;21.92;;;9.40;99.90;;;;;;4159202;28;20030;-71
2020/12/13 06:31:01;;;;;;;33.08;22.02;;;9.30;99.90;;;;;;4162677;28;20434;-72
2020/12/13 06:33:02;;;;;;;32.28;22.33;;;9.40;99.90;;;;;;4152751;28;20036;-72
2020/12/13 06:35:03;;;;;;;32.65;21.90;;;9.40;99.90;;;;;;4166601;28;20033;-72
2020/12/13 06:37:04;;;;;;;28.90;20.88;;;9.30;99.90;;;;;;4142475;28;20029;-72
2020/12/13 06:39:17;;;;;;;31.40;21.98;;;9.30;99.90;;;;;;4140961;28;20401;-72
2020/12/13 06:41:21;;;;;;;34.00;22.95;;;9.30;99.90;;;;;;4157020;28;20037;-71
2020/12/13 06:43:21;;;;;;;31.65;21.60;;;9.30;99.90;;;;;;4158706;28;20424;-72
2020/12/13 06:45:23;;;;;;;43.88;26.95;;;9.30;99.90;;;;;;4161802;28;20070;-72
2020/12/13 06:47:24;;;;;;;29.48;21.48;;;9.20;99.90;;;;;;4157583;28;20048;-72
2020/12/13 06:49:25;;;;;;;40.47;25.88;;;9.30;99.90;;;;;;4154055;28;20107;-72
2020/12/13 06:51:29;;;;;;;33.13;20.92;;;9.30;99.90;;;;;;4163109;28;20487;-72
2020/12/13 06:53:30;;;;;;;31.35;21.35;;;9.30;99.90;;;;;;4155855;28;20034;-72
2020/12/13 06:55:35;;;;;;;31.35;21.60;;;9.20;99.90;;;;;;4153709;28;20041;-72
2020/12/13 06:57:46;;;;;;;30.35;21.23;;;9.30;99.90;;;;;;4161162;28;20033;-72
2020/12/13 06:59:47;;;;;;;28.88;19.17;;;9.30;99.90;;;;;;4158050;28;20032;-72
2020/12/13 07:01:47;;;;;;;29.42;21.00;;;9.20;99.90;;;;;;4156322;28;20038;-72
2020/12/13 07:03:49;;;;;;;30.50;21.27;;;9.30;99.90;;;;;;4154621;28;20552;-72
2020/12/13 07:05:54;;;;;;;29.25;20.83;;;9.30;99.90;;;;;;4164512;28;20048;-72
2020/12/13 07:07:56;;;;;;;30.15;20.45;;;9.30;99.90;;;;;;4166884;28;20113;-72
2020/12/13 07:09:59;;;;;;;29.33;19.60;;;9.20;99.90;;;;;;4166896;28;20079;-72
2020/12/13 07:12:02;;;;;;;32.10;21.35;;;9.20;99.90;;;;;;4167053;28;20044;-72
2020/12/13 07:14:05;;;;;;;35.97;21.90;;;9.30;99.90;;;;;;4161964;28;20092;-72
2020/12/13 07:16:26;;;;;;;31.75;19.63;;;9.20;99.90;;;;;;4158889;28;20033;-73
2020/12/13 07:18:31;;;;;;;29.63;21.02;;;9.20;99.90;;;;;;4159876;28;21855;-73
2020/12/13 07:20:33;;;;;;;37.47;23.17;;;9.20;99.90;;;;;;4160585;28;20493;-72
2020/12/13 07:22:34;;;;;;;34.60;23.60;;;9.20;99.90;;;;;;4164130;28;20068;-73
2020/12/13 07:24:35;;;;;;;35.75;21.80;;;9.10;99.90;;;;;;4153312;28;20436;-73
2020/12/13 07:26:37;;;;;;;32.85;21.65;;;9.10;99.90;;;;;;4177017;28;20056;-73
2020/12/13 07:28:38;;;;;;;29.05;20.25;;;9.20;99.90;;;;;;4155794;28;20061;-73
2020/12/13 07:30:39;;;;;;;32.53;21.75;;;9.10;99.90;;;;;;4164955;28;20034;-73
2020/12/13 07:32:40;;;;;;;31.98;20.63;;;9.10;99.90;;;;;;4170700;28;20087;-73
2020/12/13 07:34:40;;;;;;;37.25;22.60;;;9.10;99.90;;;;;;4166719;28;20028;-73
2020/12/13 07:36:41;;;;;;;28.08;20.08;;;9.10;99.90;;;;;;4166364;28;20414;-73
2020/12/13 07:38:42;;;;;;;32.35;20.42;;;9.10;99.90;;;;;;4167834;28;20397;-73
2020/12/13 07:40:43;;;;;;;27.38;19.13;;;9.10;99.90;;;;;;4162225;28;20048;-73
2020/12/13 07:42:58;;;;;;;31.75;19.90;;;9.10;99.90;;;;;;4169837;28;20112;-72
2020/12/13 07:44:59;;;;;;;34.95;19.77;;;9.10;99.90;;;;;;4169987;28;20041;-73
2020/12/13 07:47:00;;;;;;;32.88;19.15;;;9.10;99.90;;;;;;4163798;28;20025;-73
2020/12/13 07:49:08;;;;;;;29.40;17.25;;;9.00;99.90;;;;;;4169894;28;20033;-73
2020/12/13 07:51:10;;;;;;;29.27;17.25;;;9.00;99.90;;;;;;4159882;28;20082;-73
2020/12/13 07:53:11;;;;;;;25.80;16.48;;;9.00;99.90;;;;;;4168289;28;20555;-73
2020/12/13 07:55:11;;;;;;;24.30;15.65;;;9.00;99.90;;;;;;4152168;28;20037;-73
2020/12/13 07:57:16;;;;;;;20.85;15.05;;;9.00;99.90;;;;;;4167417;28;20028;-72
2020/12/13 07:59:25;;;;;;;24.05;16.38;;;9.00;99.90;;;;;;4170632;28;20037;-71
2020/12/13 08:01:26;;;;;;;24.05;15.85;;;9.00;99.90;;;;;;4172182;28;20128;-72
2020/12/13 08:03:27;;;;;;;22.75;15.43;;;9.00;99.90;;;;;;4170549;28;20060;-71
2020/12/13 08:05:28;;;;;;;23.63;14.82;;;9.00;99.90;;;;;;4169816;28;20029;-72
2020/12/13 08:07:30;;;;;;;23.38;15.13;;;8.90;99.90;;;;;;4164653;28;20028;-72
2020/12/13 08:09:32;;;;;;;22.30;15.00;;;9.00;99.90;;;;;;4167250;28;20060;-71
2020/12/13 08:11:38;;;;;;;26.13;14.68;;;8.90;99.90;;;;;;4164111;28;20061;-72
2020/12/13 08:13:50;;;;;;;21.30;15.23;;;8.90;99.90;;;;;;4163798;28;20121;-71
2020/12/13 08:16:03;;;;;;;20.30;13.07;;;8.90;99.90;;;;;;4167014;28;20044;-71
2020/12/13 08:18:10;;;;;;;22.35;13.88;;;8.90;99.90;;;;;;4164085;28;20029;-71
2020/12/13 08:20:13;;;;;;;24.88;14.43;;;8.90;99.90;;;;;;4146929;28;20038;-72
2020/12/13 08:22:28;;;;;;;21.73;13.43;;;8.90;99.90;;;;;;4164999;28;20049;-72
2020/12/13 08:24:30;;;;;;;22.42;14.38;;;8.90;99.90;;;;;;4157930;28;20519;-72
2020/12/13 08:26:34;;;;;;;23.27;13.32;;;8.90;99.90;;;;;;4168826;28;20422;-71
2020/12/13 08:28:37;;;;;;;26.17;14.52;;;8.90;99.90;;;;;;4148370;28;20034;-71
2020/12/13 08:30:39;;;;;;;27.17;14.18;;;8.90;99.90;;;;;;4166235;28;20029;-72
2020/12/13 08:32:40;;;;;;;23.52;13.45;;;8.90;99.90;;;;;;4167922;28;20081;-71
2020/12/13 08:34:41;;;;;;;21.50;13.43;;;8.90;99.90;;;;;;4149128;28;20030;-71
2020/12/13 08:36:51;;;;;;;30.42;14.68;;;8.90;99.90;;;;;;4167707;28;20099;-71
2020/12/13 08:39:02;;;;;;;23.45;12.68;;;8.90;99.90;;;;;;4167278;28;20067;-71
2020/12/13 08:41:03;;;;;;;23.10;13.30;;;8.90;99.90;;;;;;4166797;28;20041;-71
2020/12/13 08:43:04;;;;;;;23.88;12.50;;;8.80;99.90;;;;;;4167373;28;20369;-72
2020/12/13 08:45:05;;;;;;;22.20;11.93;;;8.80;99.90;;;;;;4164342;28;20054;-72
2020/12/13 08:47:08;;;;;;;22.40;12.30;;;8.80;99.90;;;;;;4166688;28;20036;-71
2020/12/13 08:49:08;;;;;;;22.50;11.73;;;8.80;99.90;;;;;;4170326;28;20049;-71
2020/12/13 08:51:11;;;;;;;21.33;11.77;;;8.80;99.90;;;;;;4165561;28;20040;-72
2020/12/13 08:53:38;;;;;;;16.63;10.55;;;8.80;99.90;;;;;;4163281;28;20064;-71
2020/12/13 08:55:41;;;;;;;17.08;10.07;;;8.80;99.90;;;;;;4169320;28;20137;-71
2020/12/13 08:57:47;;;;;;;18.55;10.07;;;8.90;99.90;;;;;;4162449;28;20044;-71
2020/12/13 09:00:06;;;;;;;15.60;9.63;;;8.90;99.90;;;;;;4170380;28;20116;-72
2020/12/13 09:02:07;;;;;;;16.50;10.05;;;8.90;99.90;;;;;;4170784;28;20036;-71
2020/12/13 09:04:18;;;;;;;17.48;8.75;;;8.90;99.90;;;;;;4161839;28;20511;-72
2020/12/13 09:06:29;;;;;;;18.35;8.90;;;8.90;99.90;;;;;;4159975;28;20481;-72
2020/12/13 09:08:30;;;;;;;13.25;7.72;;;8.90;99.90;;;;;;4168685;28;20083;-71
2020/12/13 09:10:37;;;;;;;18.90;8.80;;;8.80;99.90;;;;;;4165351;28;20030;-71
2020/12/13 09:12:40;;;;;;;16.50;8.10;;;8.80;99.90;;;;;;4163850;28;20025;-72
2020/12/13 09:14:41;;;;;;;12.18;7.38;;;8.80;99.90;;;;;;4162843;28;20450;-71
2020/12/13 09:16:48;;;;;;;14.00;8.02;;;8.80;99.90;;;;;;4160999;28;20116;-71
2020/12/13 09:19:00;;;;;;;15.27;7.85;;;8.80;99.90;;;;;;4162980;28;20049;-71
2020/12/13 09:21:00;;;;;;;12.75;7.05;;;8.80;99.90;;;;;;4165679;28;20382;-72
2020/12/13 09:23:11;;;;;;;13.18;7.82;;;8.80;99.90;;;;;;4168018;28;20504;-71
2020/12/13 09:25:12;;;;;;;15.70;8.30;;;8.90;99.90;;;;;;4164535;28;20048;-71
2020/12/13 09:27:18;;;;;;;12.98;6.90;;;8.90;99.90;;;;;;4167513;28;20040;-72
2020/12/13 09:29:19;;;;;;;10.30;6.47;;;8.90;99.90;;;;;;4163883;28;20049;-71
2020/12/13 09:31:19;;;;;;;12.50;7.22;;;9.00;99.90;;;;;;4164151;28;20042;-71
2020/12/13 09:33:20;;;;;;;14.25;7.18;;;8.90;99.90;;;;;;4163262;28;20045;-72
2020/12/13 09:35:21;;;;;;;11.48;6.90;;;8.90;99.90;;;;;;4163353;28;20378;-71
2020/12/13 09:37:21;;;;;;;11.50;6.05;;;8.90;99.90;;;;;;4146775;28;21371;-72
2020/12/13 09:39:22;;;;;;;13.80;7.22;;;8.90;99.90;;;;;;4163661;28;20057;-72
2020/12/13 09:41:23;;;;;;;13.45;6.75;;;8.90;99.90;;;;;;4161249;28;20033;-72
2020/12/13 09:43:23;;;;;;;13.90;6.80;;;8.90;99.90;;;;;;4168437;28;20033;-71
2020/12/13 09:45:24;;;;;;;14.85;6.15;;;8.90;99.90;;;;;;4166288;28;20396;-72
2020/12/13 09:47:25;;;;;;;19.73;6.57;;;8.90;99.90;;;;;;4166170;28;20527;-71
2020/12/13 09:49:27;;;;;;;18.30;6.80;;;8.90;99.90;;;;;;4165103;28;20041;-71
2020/12/13 09:51:27;;;;;;;15.35;6.70;;;9.00;99.90;;;;;;4161343;28;20033;-72
2020/12/13 09:53:28;;;;;;;12.57;6.30;;;9.00;99.90;;;;;;4162187;28;20057;-72
2020/12/13 09:55:28;;;;;;;15.25;7.13;;;9.00;99.90;;;;;;4163563;28;20044;-72
2020/12/13 09:57:29;;;;;;;12.63;5.53;;;9.00;99.90;;;;;;4144577;28;20045;-72
2020/12/13 09:59:30;;;;;;;13.57;5.97;;;9.00;99.90;;;;;;4160109;28;20033;-73
2020/12/13 10:01:30;;;;;;;14.32;5.90;;;9.10;99.90;;;;;;4159732;28;20041;-71
2020/12/13 10:03:31;;;;;;;13.57;6.97;;;9.10;99.90;;;;;;4162288;28;20299;-72
2020/12/13 10:05:55;;;;;;;12.02;6.60;;;9.00;99.90;;;;;;4164731;28;20053;-71
2020/12/13 10:10:16;;;;;;;12.48;5.88;;;9.10;99.90;;;;;;4163620;28;20499;-71
2020/12/13 10:12:17;;;;;;;17.98;6.97;;;9.10;99.90;;;;;;4169018;28;20033;-71
2020/12/13 10:14:19;;;;;;;11.68;5.82;;;9.10;99.90;;;;;;4161613;28;20071;-71
2020/12/13 10:16:19;;;;;;;14.30;6.93;;;9.10;99.90;;;;;;4161027;28;20083;-71
2020/12/13 10:18:20;;;;;;;12.10;6.43;;;9.10;99.90;;;;;;4159999;28;20041;-71
2020/12/13 10:20:21;;;;;;;15.70;6.88;;;9.00;99.90;;;;;;4158600;28;20076;-70
2020/12/13 10:22:22;;;;;;;12.52;6.45;;;9.00;99.90;;;;;;4156172;28;20053;-70
2020/12/13 10:24:22;;;;;;;12.05;6.00;;;9.00;99.90;;;;;;4165955;28;20520;-70
2020/12/13 10:26:24;;;;;;;10.50;5.47;;;9.00;99.90;;;;;;4159700;28;20033;-71
2020/12/13 10:28:25;;;;;;;14.57;6.50;;;9.00;99.90;;;;;;4160022;28;20053;-71
2020/12/13 10:30:26;;;;;;;13.13;6.45;;;9.00;99.90;;;;;;4159773;28;20083;-70
2020/12/13 10:32:27;;;;;;;13.60;5.72;;;9.00;99.90;;;;;;4159209;28;20107;-71
2020/12/13 10:34:28;;;;;;;14.80;6.78;;;9.10;99.90;;;;;;4158630;28;20038;-71
2020/12/13 10:36:31;;;;;;;13.18;6.55;;;9.10;99.90;;;;;;4163244;28;20056;-71
2020/12/13 10:38:32;;;;;;;12.60;5.50;;;9.10;99.90;;;;;;4163442;28;20500;-71